Time;durP1;ratioP1;P1;durP2;ratioP2;P2;SDS_P1;SDS_P2;PMS_P1;PMS_P2;Temp;Humidity;BMP_temperature;BMP_pressure;BME280_temperature;BME280_humidity;BME280_pressure;Samples;Min_cycle;Max_cycle;Signal;HPM_P1;HPM_P2
2023/09/09 00:01:15;;;;;;;13.63;10.90;;;;;19.50;101138.00;;;;4927223;28;20229;-72
2023/09/09 00:04:03;;;;;;;17.03;11.37;;;;;19.50;101147.00;;;;4918322;29;20265;-72
2023/09/09 00:06:49;;;;;;;13.70;11.23;;;;;19.40;101136.00;;;;4923265;29;20848;-73
2023/09/09 00:09:35;;;;;;;15.10;11.03;;;;;19.40;101143.00;;;;4923203;29;20360;-72
2023/09/09 00:12:22;;;;;;;13.23;10.63;;;;;19.30;101140.00;;;;4919709;28;20230;-75
2023/09/09 00:15:09;;;;;;;15.07;10.97;;;;;19.30;101139.00;;;;4920372;29;20807;-72
2023/09/09 00:17:56;;;;;;;14.87;11.07;;;;;19.30;101138.00;;;;4921693;28;20326;-71
2023/09/09 00:20:42;;;;;;;15.70;11.30;;;;;19.30;101140.00;;;;4924916;29;20238;-73
2023/09/09 00:23:29;;;;;;;15.30;11.27;;;;;19.30;101130.00;;;;4913877;29;20234;-73
2023/09/09 00:26:15;;;;;;;15.30;10.87;;;;;19.20;101129.00;;;;4912378;29;20761;-72
2023/09/09 00:29:03;;;;;;;14.47;11.23;;;;;19.20;101128.00;;;;4920911;29;20610;-73
2023/09/09 00:31:50;;;;;;;13.10;10.53;;;;;19.20;101115.00;;;;4924725;29;20264;-72
2023/09/09 00:34:38;;;;;;;16.40;11.50;;;;;19.20;101123.00;;;;4922358;28;20258;-73
2023/09/09 00:37:24;;;;;;;15.67;11.57;;;;;19.20;101121.00;;;;4911440;29;20762;-74
2023/09/09 00:40:12;;;;;;;14.90;11.27;;;;;19.20;101114.00;;;;4917595;28;20876;-75
2023/09/09 00:42:59;;;;;;;14.27;10.67;;;;;19.20;101117.00;;;;4917488;29;20292;-74
2023/09/09 00:45:45;;;;;;;16.23;12.00;;;;;19.10;101119.00;;;;4918231;29;20230;-73
2023/09/09 00:48:31;;;;;;;15.50;11.23;;;;;19.10;101115.00;;;;4917400;28;20291;-71
2023/09/09 00:51:19;;;;;;;14.53;11.90;;;;;19.10;101104.00;;;;4923018;28;20245;-74
2023/09/09 00:54:06;;;;;;;15.70;11.47;;;;;19.00;101110.00;;;;4910375;29;20239;-72
2023/09/09 00:56:52;;;;;;;15.33;11.50;;;;;19.00;101106.00;;;;4920239;29;20243;-74
2023/09/09 00:59:39;;;;;;;18.40;11.83;;;;;19.00;101111.00;;;;4923333;28;20231;-74
2023/09/09 01:02:25;;;;;;;15.67;11.00;;;;;18.90;101100.00;;;;4913301;29;20714;-73
2023/09/09 01:05:12;;;;;;;16.43;12.07;;;;;18.90;101102.00;;;;4919481;29;20799;-70
2023/09/09 01:08:02;;;;;;;15.40;11.13;;;;;18.90;101101.00;;;;4925002;29;20296;-71
2023/09/09 01:10:48;;;;;;;14.77;10.70;;;;;18.90;101102.00;;;;4921295;29;20737;-72
2023/09/09 01:13:35;;;;;;;17.13;10.57;;;;;18.90;101104.00;;;;4922608;28;20257;-73
2023/09/09 01:16:22;;;;;;;14.53;10.77;;;;;18.80;101100.00;;;;4926039;29;20728;-72
2023/09/09 01:19:09;;;;;;;14.57;11.47;;;;;18.80;101103.00;;;;4922639;29;20233;-74
2023/09/09 01:22:00;;;;;;;14.80;11.13;;;;;18.80;101095.00;;;;4929738;29;20232;-73
2023/09/09 01:24:49;;;;;;;18.60;10.97;;;;;18.80;101095.00;;;;4927697;29;20799;-70
2023/09/09 01:27:35;;;;;;;13.87;10.83;;;;;18.80;101085.00;;;;4926736;28;20278;-75
2023/09/09 01:30:22;;;;;;;14.43;10.43;;;;;18.70;101092.00;;;;4916528;29;20237;-73
2023/09/09 01:33:08;;;;;;;13.27;10.70;;;;;18.70;101090.00;;;;4921945;28;20238;-74
2023/09/09 01:35:54;;;;;;;18.97;11.30;;;;;18.60;101092.00;;;;4924461;29;20369;-74
2023/09/09 01:38:41;;;;;;;13.63;11.03;;;;;18.60;101089.00;;;;4917307;28;20232;-73
2023/09/09 01:41:28;;;;;;;12.77;10.33;;;;;18.60;101096.00;;;;4918687;29;20241;-73
2023/09/09 01:44:15;;;;;;;15.93;11.07;;;;;18.60;101092.00;;;;4918706;29;20731;-74
2023/09/09 01:47:01;;;;;;;15.73;11.50;;;;;18.50;101092.00;;;;4920511;29;20232;-75
2023/09/09 01:49:47;;;;;;;13.40;11.40;;;;;18.50;101086.00;;;;4930324;28;20287;-73
2023/09/09 01:52:33;;;;;;;14.03;10.70;;;;;18.50;101095.00;;;;4927486;28;20241;-72
2023/09/09 01:55:19;;;;;;;15.43;10.70;;;;;18.50;101087.00;;;;4916569;29;20302;-75
2023/09/09 01:58:07;;;;;;;14.50;11.47;;;;;18.50;101092.00;;;;4916288;29;20246;-71
2023/09/09 02:00:53;;;;;;;14.07;11.10;;;;;18.40;101094.00;;;;4911491;29;20234;-72
2023/09/09 02:03:40;;;;;;;17.63;11.67;;;;;18.40;101099.00;;;;4917277;28;20297;-72
2023/09/09 02:06:28;;;;;;;16.57;11.43;;;;;18.40;101094.00;;;;4918744;29;20233;-75
2023/09/09 02:09:14;;;;;;;15.60;11.10;;;;;18.40;101100.00;;;;4918567;29;20236;-74
2023/09/09 02:12:03;;;;;;;15.20;11.63;;;;;18.40;101101.00;;;;4921985;29;20612;-74
2023/09/09 02:14:50;;;;;;;15.33;10.97;;;;;18.40;101100.00;;;;4928694;29;20324;-74
2023/09/09 02:17:37;;;;;;;19.63;11.97;;;;;18.40;101091.00;;;;4916674;29;20229;-73
2023/09/09 02:20:23;;;;;;;16.00;11.07;;;;;18.30;101089.00;;;;4915667;28;20257;-75
2023/09/09 02:23:10;;;;;;;19.40;11.50;;;;;18.30;101090.00;;;;4919545;28;20233;-72
2023/09/09 02:25:56;;;;;;;15.83;11.43;;;;;18.20;101088.00;;;;4924827;29;20260;-74
2023/09/09 02:28:45;;;;;;;16.07;11.27;;;;;18.30;101093.00;;;;4924642;29;20230;-73
2023/09/09 02:31:33;;;;;;;13.90;11.07;;;;;18.20;101089.00;;;;4918740;29;20620;-75
2023/09/09 02:34:20;;;;;;;15.40;11.27;;;;;18.20;101090.00;;;;4923537;28;20240;-74
2023/09/09 02:37:16;;;;;;;15.93;11.60;;;;;18.10;101089.00;;;;4914192;29;20245;-74
2023/09/09 02:40:04;;;;;;;16.03;11.60;;;;;18.10;101081.00;;;;4914925;29;20607;-75
2023/09/09 02:42:50;;;;;;;14.93;10.83;;;;;18.10;101087.00;;;;4912970;29;20232;-73
2023/09/09 02:45:37;;;;;;;16.47;11.30;;;;;18.00;101074.00;;;;4917062;29;20228;-75
2023/09/09 02:48:25;;;;;;;15.67;11.53;;;;;18.00;101071.00;;;;4925292;29;20228;-72
2023/09/09 02:51:11;;;;;;;15.67;11.73;;;;;18.00;101076.00;;;;4917719;29;20264;-74
2023/09/09 02:53:57;;;;;;;16.63;11.87;;;;;18.00;101076.00;;;;4923789;29;20839;-74
2023/09/09 02:56:44;;;;;;;18.83;11.23;;;;;18.00;101089.00;;;;4916702;29;20734;-75
2023/09/09 02:59:31;;;;;;;13.63;11.37;;;;;17.90;101079.00;;;;4911353;29;20237;-75
2023/09/09 03:02:17;;;;;;;13.50;10.47;;;;;17.90;101076.00;;;;4921410;28;20237;-74
2023/09/09 03:05:05;;;;;;;14.63;10.73;;;;;17.90;101077.00;;;;4921529;28;20236;-74
2023/09/09 03:07:51;;;;;;;14.90;10.27;;;;;17.90;101081.00;;;;4918191;29;20301;-73
2023/09/09 03:10:38;;;;;;;15.27;10.97;;;;;17.80;101077.00;;;;4918792;28;20324;-75
2023/09/09 03:13:24;;;;;;;15.50;10.23;;;;;17.80;101078.00;;;;4906116;29;20603;-72
2023/09/09 03:16:10;;;;;;;16.37;11.03;;;;;17.70;101074.00;;;;4924610;29;20244;-73
2023/09/09 03:18:57;;;;;;;15.87;11.03;;;;;17.80;101078.00;;;;4917836;28;20237;-74
2023/09/09 03:21:44;;;;;;;13.60;10.47;;;;;17.70;101075.00;;;;4924929;29;20240;-75
2023/09/09 03:24:31;;;;;;;14.87;10.83;;;;;17.70;101074.00;;;;4922890;29;20236;-76
2023/09/09 03:27:17;;;;;;;14.37;11.00;;;;;17.80;101077.00;;;;4914548;29;20301;-75
2023/09/09 03:30:04;;;;;;;16.03;10.47;;;;;17.70;101081.00;;;;4919179;29;20750;-72
2023/09/09 03:32:50;;;;;;;13.93;10.57;;;;;17.70;101077.00;;;;4919276;29;20236;-72
2023/09/09 03:35:37;;;;;;;12.23;10.40;;;;;17.70;101086.00;;;;4928407;28;20766;-72
2023/09/09 03:38:25;;;;;;;13.13;10.17;;;;;17.60;101084.00;;;;4928458;29;20280;-74
2023/09/09 03:41:11;;;;;;;14.37;11.10;;;;;17.60;101084.00;;;;4928067;29;20322;-74
2023/09/09 03:43:58;;;;;;;14.27;9.90;;;;;17.50;101072.00;;;;4922241;29;20232;-75
2023/09/09 03:46:44;;;;;;;13.47;10.83;;;;;17.50;101074.00;;;;4927295;29;20240;-74
2023/09/09 03:49:30;;;;;;;14.90;11.40;;;;;17.50;101082.00;;;;4922269;28;20329;-74
2023/09/09 03:52:17;;;;;;;17.00;10.87;;;;;17.50;101088.00;;;;4925473;29;20233;-72
2023/09/09 03:55:05;;;;;;;16.80;11.10;;;;;17.50;101085.00;;;;4931356;29;20360;-73
2023/09/09 03:57:52;;;;;;;13.87;10.23;;;;;17.50;101087.00;;;;4915169;29;20256;-73
2023/09/09 04:00:38;;;;;;;14.30;10.87;;;;;17.50;101083.00;;;;4924310;29;20982;-73
2023/09/09 04:03:24;;;;;;;12.53;9.97;;;;;17.50;101088.00;;;;4927175;29;20800;-74
2023/09/09 04:06:13;;;;;;;12.13;9.70;;;;;17.50;101099.00;;;;4925630;29;20734;-73
2023/09/09 04:08:59;;;;;;;14.40;10.33;;;;;17.40;101085.00;;;;4919677;29;20241;-74
2023/09/09 04:11:47;;;;;;;15.83;10.37;;;;;17.40;101076.00;;;;4918759;29;20313;-73
2023/09/09 04:14:33;;;;;;;12.83;10.27;;;;;17.40;101082.00;;;;4925745;29;20248;-74
2023/09/09 04:17:19;;;;;;;18.43;10.90;;;;;17.40;101087.00;;;;4924407;28;20428;-73
2023/09/09 04:20:08;;;;;;;17.00;11.40;;;;;17.30;101086.00;;;;4916335;29;20297;-73
2023/09/09 04:22:55;;;;;;;13.63;11.03;;;;;17.30;101084.00;;;;4919787;29;20237;-73
2023/09/09 04:25:41;;;;;;;14.00;10.93;;;;;17.30;101082.00;;;;4920628;29;20774;-73
2023/09/09 04:28:29;;;;;;;16.77;10.80;;;;;17.30;101088.00;;;;4930283;29;20255;-73
2023/09/09 04:31:15;;;;;;;13.70;10.17;;;;;17.30;101082.00;;;;4928687;29;20236;-74
2023/09/09 04:34:01;;;;;;;15.67;11.03;;;;;17.30;101086.00;;;;4922495;28;20253;-74
2023/09/09 04:36:48;;;;;;;14.67;10.27;;;;;17.20;101083.00;;;;4924658;29;20248;-73
2023/09/09 04:39:34;;;;;;;17.20;11.27;;;;;17.20;101090.00;;;;4927479;28;20236;-72
2023/09/09 04:42:21;;;;;;;14.33;10.53;;;;;17.20;101089.00;;;;4919207;29;20310;-73
2023/09/09 04:45:10;;;;;;;13.47;10.57;;;;;17.20;101088.00;;;;4925322;29;20229;-73
2023/09/09 04:47:56;;;;;;;15.87;10.87;;;;;17.20;101094.00;;;;4922056;28;20603;-73
2023/09/09 04:50:45;;;;;;;17.53;10.43;;;;;17.10;101101.00;;;;4916708;28;20250;-72
2023/09/09 04:53:32;;;;;;;15.83;11.10;;;;;17.10;101091.00;;;;4917821;29;20753;-72
2023/09/09 04:56:18;;;;;;;14.43;10.20;;;;;17.10;101089.00;;;;4920930;29;20356;-74
2023/09/09 04:59:04;;;;;;;14.63;10.47;;;;;17.20;101102.00;;;;4926008;29;20233;-73
2023/09/09 05:01:52;;;;;;;16.13;10.87;;;;;17.10;101104.00;;;;4913987;28;20614;-73
2023/09/09 05:04:39;;;;;;;16.10;10.83;;;;;17.10;101100.00;;;;4914343;28;20241;-70
2023/09/09 05:07:25;;;;;;;13.43;10.17;;;;;17.10;101104.00;;;;4918492;29;20276;-71
2023/09/09 05:10:11;;;;;;;16.57;10.67;;;;;17.10;101096.00;;;;4919588;28;20309;-72
2023/09/09 05:12:58;;;;;;;13.33;10.80;;;;;17.10;101104.00;;;;4919113;29;20230;-74
2023/09/09 05:15:44;;;;;;;17.47;11.07;;;;;17.10;101109.00;;;;4919656;29;20229;-72
2023/09/09 05:18:32;;;;;;;12.97;10.20;;;;;17.10;101102.00;;;;4925399;29;20236;-73
2023/09/09 05:21:18;;;;;;;13.73;10.07;;;;;17.20;101101.00;;;;4920876;29;20289;-74
2023/09/09 05:24:05;;;;;;;15.43;10.47;;;;;17.10;101106.00;;;;4918525;29;20232;-73
2023/09/09 05:26:51;;;;;;;12.60;9.70;;;;;17.20;101102.00;;;;4925860;29;20228;-73
2023/09/09 05:29:38;;;;;;;13.50;10.50;;;;;17.20;101113.00;;;;4916809;29;20241;-71
2023/09/09 05:32:24;;;;;;;13.37;10.00;;;;;17.20;101110.00;;;;4915373;28;20718;-73
2023/09/09 05:35:12;;;;;;;13.87;10.50;;;;;17.20;101103.00;;;;4919367;29;20898;-73
2023/09/09 05:37:58;;;;;;;16.00;10.33;;;;;17.30;101100.00;;;;4923710;29;20256;-73
2023/09/09 05:40:45;;;;;;;15.87;10.20;;;;;17.30;101108.00;;;;4923615;29;20847;-75
2023/09/09 05:43:31;;;;;;;13.63;10.50;;;;;17.30;101108.00;;;;4917226;28;20281;-73
2023/09/09 05:46:18;;;;;;;13.80;10.37;;;;;17.30;101112.00;;;;4921043;28;20308;-73
2023/09/09 05:49:05;;;;;;;12.30;9.97;;;;;17.40;101113.00;;;;4926531;28;20372;-73
2023/09/09 05:51:53;;;;;;;14.17;10.37;;;;;17.50;101125.00;;;;4923954;29;20290;-73
2023/09/09 05:54:39;;;;;;;15.97;10.43;;;;;17.50;101122.00;;;;4912294;29;21029;-72
2023/09/09 05:57:25;;;;;;;14.97;10.50;;;;;17.60;101125.00;;;;4915471;29;20244;-72
2023/09/09 06:00:12;;;;;;;12.70;9.93;;;;;17.60;101124.00;;;;4922966;29;20237;-71
2023/09/09 06:02:59;;;;;;;13.07;9.93;;;;;17.70;101126.00;;;;4924103;29;20260;-73
2023/09/09 06:05:46;;;;;;;15.57;11.17;;;;;17.70;101134.00;;;;4921561;28;20237;-71
2023/09/09 06:08:33;;;;;;;17.70;10.20;;;;;17.80;101135.00;;;;4912385;29;20240;-72
2023/09/09 06:11:20;;;;;;;14.13;10.80;;;;;17.80;101136.00;;;;4916495;29;20770;-73
2023/09/09 06:14:06;;;;;;;13.50;10.60;;;;;17.90;101134.00;;;;4924825;29;20370;-73
2023/09/09 06:16:52;;;;;;;16.13;11.00;;;;;17.90;101136.00;;;;4920322;29;20234;-72
2023/09/09 06:19:40;;;;;;;12.90;10.23;;;;;18.00;101139.00;;;;4921848;29;20361;-73
2023/09/09 06:22:26;;;;;;;14.40;10.90;;;;;18.10;101139.00;;;;4923738;29;20232;-70
2023/09/09 06:25:14;;;;;;;13.37;10.43;;;;;18.20;101142.00;;;;4923196;29;20244;-70
2023/09/09 06:28:00;;;;;;;15.13;10.87;;;;;18.20;101145.00;;;;4922364;29;20379;-70
2023/09/09 06:30:47;;;;;;;14.87;11.00;;;;;18.30;101147.00;;;;4925086;29;20773;-70
2023/09/09 06:33:34;;;;;;;15.97;11.47;;;;;18.40;101141.00;;;;4928573;29;20229;-68
2023/09/09 06:36:21;;;;;;;15.03;11.00;;;;;18.40;101148.00;;;;4916015;29;20237;-68
2023/09/09 06:39:08;;;;;;;14.23;11.73;;;;;18.50;101149.00;;;;4922574;29;20236;-70
2023/09/09 06:41:55;;;;;;;14.93;11.63;;;;;18.60;101153.00;;;;4920285;29;20280;-68
2023/09/09 06:44:43;;;;;;;14.43;11.40;;;;;18.70;101147.00;;;;4919024;29;20224;-70
2023/09/09 06:47:29;;;;;;;15.60;11.63;;;;;18.80;101156.00;;;;4924076;29;20248;-68
2023/09/09 06:50:16;;;;;;;13.10;10.93;;;;;18.80;101152.00;;;;4924785;29;20237;-68
2023/09/09 06:53:02;;;;;;;15.13;12.00;;;;;18.90;101153.00;;;;4919693;29;20364;-69
2023/09/09 06:55:49;;;;;;;15.33;11.93;;;;;19.00;101157.00;;;;4926395;28;20403;-69
2023/09/09 06:58:36;;;;;;;16.83;12.60;;;;;19.10;101156.00;;;;4916508;29;20249;-70
2023/09/09 07:01:23;;;;;;;15.80;12.83;;;;;19.30;101160.00;;;;4919552;29;20326;-70
2023/09/09 07:04:09;;;;;;;20.67;12.77;;;;;19.40;101162.00;;;;4923937;29;20312;-68
2023/09/09 07:06:56;;;;;;;17.77;12.00;;;;;19.50;101164.00;;;;4928060;29;20261;-70
2023/09/09 07:09:58;;;;;;;15.77;11.80;;;;;19.60;101161.00;;;;4916984;29;20301;-67
2023/09/09 07:12:44;;;;;;;18.10;12.80;;;;;19.70;101165.00;;;;4917910;28;20725;-69
2023/09/09 07:15:35;;;;;;;17.03;12.10;;;;;19.80;101164.00;;;;4909922;29;20727;-69
2023/09/09 07:18:22;;;;;;;15.93;13.20;;;;;19.90;101165.00;;;;4922913;29;20245;-68
2023/09/09 07:21:08;;;;;;;18.87;13.20;;;;;20.00;101170.00;;;;4919189;29;20371;-69
2023/09/09 07:23:55;;;;;;;14.73;11.20;;;;;20.10;101164.00;;;;4913900;28;20251;-70
2023/09/09 07:26:41;;;;;;;19.00;11.20;;;;;20.20;101165.00;;;;4914757;29;20237;-70
2023/09/09 07:29:27;;;;;;;13.47;10.63;;;;;20.30;101166.00;;;;4919637;28;20233;-70
2023/09/09 07:32:15;;;;;;;15.77;10.73;;;;;20.40;101172.00;;;;4921601;29;20226;-69
2023/09/09 07:35:02;;;;;;;14.07;11.23;;;;;20.40;101179.00;;;;4925237;29;20259;-69
2023/09/09 07:37:49;;;;;;;16.60;11.20;;;;;20.50;101165.00;;;;4917565;29;20239;-70
2023/09/09 07:40:37;;;;;;;16.97;11.47;;;;;20.60;101164.00;;;;4911752;29;20247;-71
2023/09/09 07:43:24;;;;;;;17.07;11.57;;;;;20.70;101168.00;;;;4926449;29;20235;-67
2023/09/09 07:46:10;;;;;;;13.70;10.27;;;;;20.80;101170.00;;;;4918106;29;20239;-69
2023/09/09 07:48:58;;;;;;;12.07;10.47;;;;;20.90;101168.00;;;;4927158;28;20323;-69
2023/09/09 07:51:45;;;;;;;12.33;10.37;;;;;21.00;101169.00;;;;4914143;29;20241;-71
2023/09/09 07:54:31;;;;;;;13.67;11.00;;;;;21.10;101167.00;;;;4917099;29;20784;-72
2023/09/09 07:57:17;;;;;;;15.93;11.67;;;;;21.10;101168.00;;;;4916400;29;20236;-71
2023/09/09 08:00:07;;;;;;;16.73;11.40;;;;;21.20;101165.00;;;;4915225;29;20305;-69
2023/09/09 08:02:53;;;;;;;12.60;9.93;;;;;21.30;101169.00;;;;4924215;29;20240;-71
2023/09/09 08:05:41;;;;;;;13.17;11.07;;;;;21.40;101169.00;;;;4912509;29;20244;-70
2023/09/09 08:08:28;;;;;;;13.27;10.63;;;;;21.50;101164.00;;;;4924106;29;20239;-70
2023/09/09 08:11:14;;;;;;;14.00;10.33;;;;;21.60;101170.00;;;;4913993;29;20236;-69
2023/09/09 08:14:01;;;;;;;16.10;11.27;;;;;21.70;101166.00;;;;4916562;29;20601;-70
2023/09/09 08:16:47;;;;;;;18.23;11.30;;;;;21.80;101165.00;;;;4912893;29;20602;-68
2023/09/09 08:19:34;;;;;;;15.73;10.73;;;;;21.90;101171.00;;;;4908529;29;20265;-70
2023/09/09 08:22:22;;;;;;;17.47;11.40;;;;;22.00;101167.00;;;;4919974;29;20723;-67
2023/09/09 08:25:09;;;;;;;16.83;10.33;;;;;22.10;101166.00;;;;4912875;29;20286;-69
2023/09/09 08:27:55;;;;;;;18.27;11.23;;;;;22.30;101168.00;;;;4915722;28;20234;-70
2023/09/09 08:30:41;;;;;;;15.47;10.63;;;;;22.40;101164.00;;;;4917303;29;20246;-72
2023/09/09 08:33:28;;;;;;;16.57;11.77;;;;;22.60;101164.00;;;;4917882;29;20232;-71
2023/09/09 08:36:15;;;;;;;17.13;10.50;;;;;22.70;101166.00;;;;4916189;29;20240;-69
2023/09/09 08:39:02;;;;;;;13.67;9.80;;;;;22.80;101176.00;;;;4921842;29;20241;-71
2023/09/09 08:41:59;;;;;;;16.47;9.90;;;;;23.00;101177.00;;;;4922707;29;20802;-70
2023/09/09 08:44:58;;;;;;;14.33;10.00;;;;;23.20;101172.00;;;;4929345;28;20249;-69
2023/09/09 08:47:46;;;;;;;16.67;10.13;;;;;23.30;101184.00;;;;4928306;28;20281;-71
2023/09/09 08:50:36;;;;;;;14.17;9.90;;;;;23.40;101179.00;;;;4925135;28;20637;-71
2023/09/09 08:53:23;;;;;;;13.20;10.50;;;;;23.70;101193.00;;;;4915912;28;20230;-71
2023/09/09 08:56:12;;;;;;;16.53;9.97;;;;;23.80;101185.00;;;;4923050;29;20229;-70
2023/09/09 08:58:58;;;;;;;14.37;9.77;;;;;23.90;101188.00;;;;4927131;29;20241;-72
2023/09/09 09:01:45;;;;;;;14.50;10.17;;;;;24.00;101184.00;;;;4921456;28;20296;-71
2023/09/09 09:04:33;;;;;;;14.20;10.87;;;;;24.10;101188.00;;;;4924959;29;20246;-68
2023/09/09 09:07:21;;;;;;;15.90;9.87;;;;;24.20;101185.00;;;;4923174;29;20236;-72
2023/09/09 09:10:08;;;;;;;13.10;9.10;;;;;24.40;101181.00;;;;4919463;28;20359;-71
2023/09/09 09:12:56;;;;;;;17.10;10.47;;;;;24.60;101188.00;;;;4925361;28;20236;-71
2023/09/09 09:15:43;;;;;;;15.73;10.03;;;;;24.70;101183.00;;;;4922592;28;20230;-71
2023/09/09 09:18:29;;;;;;;11.27;9.13;;;;;24.80;101186.00;;;;4918456;29;20233;-71
2023/09/09 09:21:15;;;;;;;14.30;9.30;;;;;24.90;101187.00;;;;4920558;29;20248;-69
2023/09/09 09:24:02;;;;;;;14.25;10.48;;;;;25.00;101184.00;;;;4923008;29;20240;-70
2023/09/09 09:26:48;;;;;;;13.73;9.85;;;;;25.10;101181.00;;;;4921072;28;20233;-72
2023/09/09 09:29:40;;;;;;;13.95;9.75;;;;;25.40;101184.00;;;;4926350;28;20264;-70
2023/09/09 09:32:40;;;;;;;11.98;9.52;;;;;25.50;101178.00;;;;4919313;28;20301;-70
2023/09/09 09:35:28;;;;;;;10.70;9.15;;;;;25.80;101189.00;;;;4925826;28;20225;-71
2023/09/09 09:38:17;;;;;;;13.20;8.82;;;;;26.00;101185.00;;;;4925205;29;20237;-71
2023/09/09 09:41:05;;;;;;;14.65;9.38;;;;;26.00;101182.00;;;;4922619;29;21006;-71
2023/09/09 09:43:52;;;;;;;13.93;9.32;;;;;26.10;101187.00;;;;4924540;29;20317;-70
2023/09/09 09:46:41;;;;;;;16.52;9.10;;;;;26.40;101185.00;;;;4923031;28;20226;-70
2023/09/09 09:49:38;;;;;;;9.40;8.15;;;;;26.40;101184.00;;;;4922675;28;20902;-70
2023/09/09 09:52:26;;;;;;;15.30;8.50;;;;;26.50;101189.00;;;;4918473;29;20236;-70
2023/09/09 09:55:17;;;;;;;16.92;8.57;;;;;26.60;101182.00;;;;4920884;28;20253;-68
2023/09/09 09:58:04;;;;;;;11.40;8.55;;;;;26.80;101178.00;;;;4925584;28;20319;-70
2023/09/09 10:00:53;;;;;;;15.77;7.97;;;;;26.90;101177.00;;;;4918213;29;20257;-71
2023/09/09 10:03:46;;;;;;;13.55;8.38;;;;;27.10;101185.00;;;;4928428;29;20608;-70
2023/09/09 10:06:35;;;;;;;17.17;7.95;;;;;27.20;101179.00;;;;4909141;29;20236;-69
2023/09/09 10:09:31;;;;;;;12.82;8.05;;;;;27.40;101188.00;;;;4922607;28;20237;-69
2023/09/09 10:12:20;;;;;;;10.60;8.38;;;;;27.50;101177.00;;;;4921283;29;20236;-69
2023/09/09 10:15:27;;;;;;;12.73;7.85;;;;;27.60;101179.00;;;;4924740;29;20237;-68
2023/09/09 10:18:14;;;;;;;11.80;7.88;;;;;27.70;101179.00;;;;4920333;29;20650;-71
2023/09/09 10:21:03;;;;;;;13.63;7.10;;;;;27.80;101175.00;;;;4927440;29;20244;-69
2023/09/09 10:23:50;;;;;;;8.63;6.75;;;;;28.00;101175.00;;;;4919991;29;20248;-70
2023/09/09 10:26:38;;;;;;;9.98;6.95;;;;;28.10;101171.00;;;;4923083;29;20245;-69
2023/09/09 10:29:25;;;;;;;10.38;6.90;;;;;28.20;101177.00;;;;4924987;28;20319;-68
2023/09/09 10:32:13;;;;;;;11.10;7.20;;;;;28.20;101173.00;;;;4926005;29;20368;-69
2023/09/09 10:35:00;;;;;;;13.98;6.75;;;;;28.30;101179.00;;;;4923053;29;20237;-68
2023/09/09 10:37:51;;;;;;;15.20;7.00;;;;;28.40;101178.00;;;;4925467;28;20236;-69
2023/09/09 10:40:38;;;;;;;11.98;7.63;;;;;28.40;101177.00;;;;4917353;29;20257;-68
2023/09/09 10:43:24;;;;;;;9.27;7.05;;;;;28.40;101174.00;;;;4922574;29;20289;-68
2023/09/09 10:46:10;;;;;;;11.13;7.60;;;;;28.40;101168.00;;;;4920856;29;20232;-70
2023/09/09 10:48:57;;;;;;;14.70;7.72;;;;;28.60;101168.00;;;;4922282;29;20242;-67
2023/09/09 10:51:48;;;;;;;10.80;7.35;;;;;28.70;101173.00;;;;4917079;29;20342;-67
2023/09/09 10:54:40;;;;;;;10.88;7.32;;;;;28.80;101171.00;;;;4924996;29;20716;-70
2023/09/09 10:57:34;;;;;;;15.35;7.40;;;;;29.00;101171.00;;;;4923333;28;20261;-69
2023/09/09 11:00:39;;;;;;;11.57;7.25;;;;;29.00;101166.00;;;;4923162;29;20261;-66
2023/09/09 11:03:29;;;;;;;12.52;7.10;;;;;29.10;101173.00;;;;4925003;29;20979;-69
2023/09/09 11:06:21;;;;;;;14.50;7.53;;;;;29.10;101176.00;;;;4917756;29;20605;-69
2023/09/09 11:09:11;;;;;;;13.95;7.57;;;;;29.00;101171.00;;;;4927955;28;20237;-67
2023/09/09 11:11:59;;;;;;;15.30;7.13;;;;;29.10;101172.00;;;;4921215;29;20240;-67
2023/09/09 11:14:47;;;;;;;15.35;6.75;;;;;29.20;101181.00;;;;4921146;29;20229;-69
2023/09/09 11:17:34;;;;;;;12.38;6.57;;;;;29.40;101179.00;;;;4924371;29;20291;-69
2023/09/09 11:20:21;;;;;;;12.88;7.32;;;;;29.60;101175.00;;;;4922702;28;20241;-69
2023/09/09 11:23:09;;;;;;;17.08;7.57;;;;;29.70;101170.00;;;;4920512;28;20288;-68
2023/09/09 11:25:57;;;;;;;11.68;7.22;;;;;29.70;101167.00;;;;4916607;29;20289;-67
2023/09/09 11:28:47;;;;;;;10.35;6.68;;;;;29.80;101177.00;;;;4913904;28;20224;-69
2023/09/09 11:31:34;;;;;;;10.63;7.38;;;;;29.90;101166.00;;;;4920614;29;20365;-67
2023/09/09 11:34:28;;;;;;;12.00;7.28;;;;;29.90;101164.00;;;;4925036;29;20244;-69
2023/09/09 11:37:15;;;;;;;12.35;7.57;;;;;30.10;101169.00;;;;4923140;28;20228;-71
2023/09/09 11:40:03;;;;;;;11.02;6.75;;;;;30.20;101168.00;;;;4922764;28;20381;-70
2023/09/09 11:42:52;;;;;;;11.50;7.43;;;;;30.20;101161.00;;;;4916216;29;20686;-70
2023/09/09 11:45:40;;;;;;;12.85;7.05;;;;;30.30;101163.00;;;;4922628;29;20246;-69
2023/09/09 11:48:27;;;;;;;10.50;7.55;;;;;30.30;101163.00;;;;4917101;29;20232;-68
2023/09/09 11:51:15;;;;;;;15.75;7.68;;;;;30.40;101176.00;;;;4925907;28;20729;-69
2023/09/09 11:54:04;;;;;;;13.10;7.38;;;;;30.50;101168.00;;;;4924437;28;20236;-68
2023/09/09 11:56:51;;;;;;;14.57;7.82;;;;;30.40;101177.00;;;;4924542;29;20353;-70
2023/09/09 11:59:44;;;;;;;19.52;7.75;;;;;30.50;101183.00;;;;4923650;29;21726;-68
2023/09/09 12:02:32;;;;;;;15.32;7.70;;;;;30.50;101177.00;;;;4917674;29;20305;-72
2023/09/09 12:05:19;;;;;;;14.65;7.40;;;;;30.70;101175.00;;;;4925427;29;20232;-70
2023/09/09 12:08:07;;;;;;;15.38;8.38;;;;;30.80;101177.00;;;;4914103;29;20608;-70
2023/09/09 12:10:57;;;;;;;19.08;8.43;;;;;31.00;101174.00;;;;4924909;28;20241;-69
2023/09/09 12:13:44;;;;;;;14.85;8.82;;;;;31.00;101180.00;;;;4919750;29;20249;-68
2023/09/09 12:16:31;;;;;;;15.30;8.65;;;;;31.10;101168.00;;;;4915386;29;20236;-69
2023/09/09 12:19:19;;;;;;;15.73;9.27;;;;;31.10;101175.00;;;;4922542;29;20328;-70
2023/09/09 12:22:06;;;;;;;16.75;9.20;;;;;31.00;101174.00;;;;4918841;29;20244;-67
2023/09/09 12:24:52;;;;;;;13.48;9.30;;;;;30.90;101183.00;;;;4920609;29;20784;-69
2023/09/09 12:27:43;;;;;;;15.88;9.18;;;;;31.00;101174.00;;;;4926697;28;20296;-68
2023/09/09 12:30:35;;;;;;;15.10;10.38;;;;;31.10;101173.00;;;;4915045;29;20240;-70
2023/09/09 12:33:21;;;;;;;18.33;9.85;;;;;31.10;101177.00;;;;4928010;29;20233;-70
2023/09/09 12:36:16;;;;;;;15.93;9.38;;;;;31.10;101171.00;;;;4925543;29;20268;-69
2023/09/09 12:39:03;;;;;;;13.95;7.78;;;;;31.30;101177.00;;;;4920997;29;20242;-70
2023/09/09 12:41:57;;;;;;;17.98;9.27;;;;;31.60;101172.00;;;;4927259;29;20236;-69
2023/09/09 12:44:53;;;;;;;15.85;8.45;;;;;31.80;101174.00;;;;4918036;29;20233;-67
2023/09/09 12:47:39;;;;;;;14.68;9.70;;;;;31.80;101170.00;;;;4918394;28;20257;-68
2023/09/09 12:50:26;;;;;;;15.65;9.05;;;;;31.70;101178.00;;;;4930217;28;20304;-66
2023/09/09 12:53:14;;;;;;;15.55;8.82;;;;;31.70;101182.00;;;;4925095;28;20300;-69
2023/09/09 12:56:01;;;;;;;11.98;8.63;;;;;31.80;101178.00;;;;4920934;29;20233;-70
2023/09/09 12:58:48;;;;;;;14.55;9.00;;;;;31.80;101178.00;;;;4910679;29;20362;-70
2023/09/09 13:01:34;;;;;;;11.15;8.63;;;;;31.80;101177.00;;;;4918560;29;20245;-65
2023/09/09 13:04:20;;;;;;;11.00;7.80;;;;;31.80;101173.00;;;;4924998;29;20232;-67
2023/09/09 13:07:07;;;;;;;10.60;7.80;;;;;31.90;101177.00;;;;4922766;29;20223;-69
2023/09/09 13:09:54;;;;;;;10.35;8.20;;;;;31.90;101176.00;;;;4924701;28;20250;-67
2023/09/09 13:12:41;;;;;;;12.55;8.43;;;;;32.00;101182.00;;;;4920133;29;20237;-67
2023/09/09 13:15:27;;;;;;;9.35;7.30;;;;;32.00;101179.00;;;;4921131;29;20604;-66
2023/09/09 13:18:14;;;;;;;10.90;7.28;;;;;31.90;101179.00;;;;4918265;28;20232;-69
2023/09/09 13:21:01;;;;;;;9.23;7.65;;;;;32.00;101173.00;;;;4921469;29;20249;-68
2023/09/09 13:23:47;;;;;;;10.80;7.90;;;;;32.10;101190.00;;;;4927847;29;20599;-69
2023/09/09 13:26:34;;;;;;;10.93;8.15;;;;;32.10;101183.00;;;;4927094;29;20281;-70
2023/09/09 13:29:21;;;;;;;14.48;8.18;;;;;32.10;101180.00;;;;4925197;29;20232;-69
2023/09/09 13:32:07;;;;;;;13.27;8.90;;;;;32.10;101180.00;;;;4920734;29;20237;-70